Avoca, Nebraska
Current Conditions -  °F | °C
As of 1:55 AM on Saturday 25 Oct 2014 (Local Time) from KPMV Reporting Station
Clear Clear  
Wind Chill: 56°   Ceiling: Unl
Heat Index: 56°   Visibility: 10mi
Dew Point: 49°   Wind: 3mph
Humidity: 77%   Direction: 320°NW
Pressure: 30.01"   Gusts: NA
Location:  40.8°N, 96.12°W
Report Text: KPMV 250655Z AUTO 32003KT 10SM CLR 14/10 A3001 RMK AO2 T01350096
Loading
Personal Weather Stations






























Interactive Weather Map
Tropical Storm Tracking
New forecast layout! Learn more

10-Day Weather Forecast

Advertisements
Track Severe Weather on mobile